Terminal Aerodrome Forecast
Issued by NWS

Home | Current Version | Previous Version | Text Only | Print | Product List | Glossary On
Versions: 1 2 3 4 5 6 7 8 9 10 11 12 13 14 15 16 17 18 19 20 21 22 23 24 25 26 27 28 29 30 31 32 33 34 35 36 37
000
FTAK31 PANC 250005 AAA
TAFACV
TAF AMD
PACV 250005Z 2500/2524 25005KT P6SM VCSH SCT025 BKN045
      TEMPO 2500/2502 6SM -SHRA BKN025
     FM250600 VRB03KT P6SM VCSH SCT025 BKN040
     FM251000 09007KT P6SM -SHRA OVC030
     FM252000 10017KT 6SM -RA OVC020=

USA.gov is the U.S. government's official web portal to all federal, state and local government web resources and services.